createdAt,value
2022-11-14T00:00:47.610Z,70.89
2022-11-14T00:03:32.883Z,71.04
2022-11-14T00:06:18.222Z,71.28
2022-11-14T00:09:03.781Z,71.30
2022-11-14T00:11:49.188Z,71.23
2022-11-14T00:14:34.412Z,70.91
2022-11-14T00:17:19.750Z,70.63
2022-11-14T00:20:07.403Z,69.90
2022-11-14T00:22:52.777Z,70.13
2022-11-14T00:25:38.247Z,70.03
2022-11-14T00:28:23.363Z,70.09
2022-11-14T00:31:10.388Z,69.99
2022-11-14T00:33:55.890Z,69.74
2022-11-14T00:36:40.945Z,69.92
2022-11-14T00:39:26.176Z,69.93
2022-11-14T00:42:11.557Z,69.81
2022-11-14T00:44:57.114Z,69.92
2022-11-14T00:47:42.254Z,69.34
2022-11-14T00:50:27.646Z,69.49
2022-11-14T00:53:12.953Z,69.09
2022-11-14T00:55:58.090Z,69.06
2022-11-14T00:58:43.261Z,68.63
2022-11-14T01:01:28.501Z,68.70
2022-11-14T01:04:14.110Z,68.76
2022-11-14T01:06:59.654Z,69.55
2022-11-14T01:09:45.337Z,70.66
2022-11-14T01:12:30.526Z,70.60
2022-11-14T01:15:16.260Z,71.19
2022-11-14T01:18:02.280Z,71.25
2022-11-14T01:20:49.110Z,70.98
2022-11-14T01:23:34.562Z,71.24
2022-11-14T01:26:20.057Z,70.81
2022-11-14T01:29:05.284Z,70.71
2022-11-14T01:31:50.790Z,70.53
2022-11-14T01:34:35.959Z,70.66
2022-11-14T01:37:21.884Z,70.35
2022-11-14T01:40:07.895Z,70.21
2022-11-14T01:43:24.998Z,69.97
2022-11-14T01:46:15.972Z,70.49
2022-11-14T01:49:24.514Z,70.23
2022-11-14T01:52:30.577Z,71.44
2022-11-14T01:55:15.844Z,71.86
2022-11-14T01:58:00.986Z,72.36
2022-11-14T02:00:46.038Z,71.98
2022-11-14T02:03:31.753Z,71.55
2022-11-14T02:06:20.220Z,71.35
2022-11-14T02:09:07.139Z,71.18
2022-11-14T02:11:55.199Z,71.43
2022-11-14T02:14:45.181Z,72.12
2022-11-14T02:17:31.240Z,71.76
2022-11-14T02:20:28.750Z,71.23
2022-11-14T02:23:14.880Z,71.35
2022-11-14T02:26:00.361Z,71.33
2022-11-14T02:28:46.955Z,71.65
2022-11-14T02:31:32.211Z,71.39
2022-11-14T02:34:19.950Z,70.94
2022-11-14T02:37:06.288Z,71.03
2022-11-14T02:39:51.725Z,70.83
2022-11-14T02:42:36.949Z,70.40
2022-11-14T02:45:22.505Z,69.81
2022-11-14T02:48:07.806Z,70.57
2022-11-14T02:50:53.000Z,70.11
2022-11-14T02:53:38.239Z,70.62
2022-11-14T02:56:23.856Z,70.66
2022-11-14T02:59:09.301Z,70.51
2022-11-14T03:01:54.607Z,70.17
2022-11-14T03:04:40.021Z,70.75
2022-11-14T03:07:25.528Z,70.48
2022-11-14T03:10:11.195Z,71.11
2022-11-14T03:12:56.792Z,71.02
2022-11-14T03:15:42.459Z,71.50
2022-11-14T03:18:28.606Z,71.47
2022-11-14T03:21:17.646Z,71.78
2022-11-14T03:24:03.271Z,71.82
2022-11-14T03:26:48.629Z,71.63
2022-11-14T03:29:33.899Z,71.76
2022-11-14T03:32:19.264Z,72.61
2022-11-14T03:35:04.730Z,72.19
2022-11-14T03:37:53.854Z,72.00
2022-11-14T03:40:41.244Z,72.78
2022-11-14T03:43:30.084Z,73.08
2022-11-14T03:46:17.954Z,73.80
2022-11-14T03:49:06.504Z,73.18
2022-11-14T03:51:51.729Z,73.53
2022-11-14T03:54:36.972Z,73.20
2022-11-14T03:57:22.329Z,73.47
2022-11-14T04:00:09.435Z,74.06
2022-11-14T04:02:55.971Z,74.06
2022-11-14T04:05:45.038Z,74.14
2022-11-14T04:08:30.544Z,74.79
2022-11-14T04:11:16.160Z,74.34
2022-11-14T04:14:01.790Z,74.24
2022-11-14T04:16:47.188Z,74.01
2022-11-14T04:19:32.626Z,74.76
2022-11-14T04:22:18.083Z,75.12
2022-11-14T04:25:04.174Z,75.15
2022-11-14T04:27:49.454Z,75.23
2022-11-14T04:30:35.020Z,75.18
2022-11-14T04:33:20.748Z,75.74
2022-11-14T04:36:06.111Z,75.75
2022-11-14T04:38:51.174Z,75.71
2022-11-14T04:41:36.663Z,75.53
2022-11-14T04:44:21.981Z,75.93
2022-11-14T04:47:10.310Z,75.23
2022-11-14T04:49:55.758Z,75.53
2022-11-14T04:52:41.032Z,75.72
2022-11-14T04:55:26.262Z,75.19
2022-11-14T04:58:11.596Z,74.43
2022-11-14T05:01:00.223Z,74.65
2022-11-14T05:03:48.465Z,75.08
2022-11-14T05:06:33.646Z,74.81
2022-11-14T05:09:19.195Z,74.75
2022-11-14T05:12:04.706Z,75.08
2022-11-14T05:14:50.065Z,75.06
2022-11-14T05:17:35.243Z,75.02
2022-11-14T05:20:20.523Z,74.97
2022-11-14T05:23:06.064Z,75.00
2022-11-14T05:26:02.246Z,74.58
2022-11-14T05:28:47.600Z,74.86
2022-11-14T05:31:32.925Z,74.80
2022-11-14T05:34:17.974Z,75.07
2022-11-14T05:37:06.360Z,74.71
2022-11-14T05:39:51.611Z,75.06
2022-11-14T05:42:36.682Z,75.30
2022-11-14T05:45:22.114Z,75.22
2022-11-14T05:48:07.260Z,75.58
2022-11-14T05:50:56.184Z,75.64
2022-11-14T05:53:41.870Z,75.73
2022-11-14T05:56:27.831Z,75.92
2022-11-14T05:59:13.499Z,75.53
2022-11-14T06:01:58.756Z,75.80
2022-11-14T06:04:44.445Z,75.28
2022-11-14T06:07:29.581Z,74.87
2022-11-14T06:10:15.153Z,74.64
2022-11-14T06:13:00.278Z,74.66
2022-11-14T06:15:46.260Z,74.71
2022-11-14T06:18:32.846Z,75.22
2022-11-14T06:21:20.234Z,75.14
2022-11-14T06:24:05.731Z,75.27
2022-11-14T06:26:51.111Z,75.55
2022-11-14T06:29:36.584Z,75.27
2022-11-14T06:32:21.961Z,75.68
2022-11-14T06:35:08.465Z,75.17
2022-11-14T06:37:54.055Z,75.50
2022-11-14T06:40:39.372Z,75.51
2022-11-14T06:43:24.481Z,75.81
2022-11-14T06:46:12.156Z,75.65
2022-11-14T06:48:57.419Z,75.46
2022-11-14T06:51:42.660Z,75.89
2022-11-14T06:54:27.778Z,75.83
2022-11-14T06:57:12.835Z,75.51
2022-11-14T06:59:58.229Z,75.70
2022-11-14T07:02:46.110Z,75.12
2022-11-14T07:05:31.128Z,75.32
2022-11-14T07:08:20.851Z,75.28
2022-11-14T07:11:11.894Z,75.41
2022-11-14T07:14:00.446Z,75.41
2022-11-14T07:16:46.866Z,75.97
2022-11-14T07:19:32.211Z,75.80
2022-11-14T07:22:17.643Z,76.36
2022-11-14T07:25:02.973Z,75.97
2022-11-14T07:27:48.505Z,75.46
2022-11-14T07:30:34.410Z,76.11
2022-11-14T07:33:19.668Z,75.95
2022-11-14T07:36:05.475Z,75.92
2022-11-14T07:38:50.999Z,75.93
2022-11-14T07:41:36.615Z,75.97
2022-11-14T07:44:21.714Z,75.93
2022-11-14T07:47:07.004Z,75.57
2022-11-14T07:49:52.202Z,75.67
2022-11-14T07:52:37.444Z,75.25
2022-11-14T07:55:23.262Z,75.18
2022-11-14T07:58:08.621Z,74.93
2022-11-14T08:00:54.204Z,74.75
2022-11-14T08:03:45.035Z,74.68
2022-11-14T08:06:31.160Z,74.28
2022-11-14T08:09:16.281Z,74.43
2022-11-14T08:12:02.160Z,74.35
2022-11-14T08:14:47.181Z,74.70
2022-11-14T08:17:32.462Z,74.56
2022-11-14T08:20:17.582Z,74.18
2022-11-14T08:23:04.799Z,74.35
2022-11-14T08:25:50.751Z,74.25
2022-11-14T08:28:36.318Z,74.25
2022-11-14T08:31:22.140Z,74.58
2022-11-14T08:34:07.336Z,74.40
2022-11-14T08:36:52.541Z,74.39
2022-11-14T08:39:37.655Z,73.98
2022-11-14T08:42:23.112Z,73.90
2022-11-14T08:45:08.852Z,73.80
2022-11-14T08:47:54.330Z,73.56
2022-11-14T08:50:39.967Z,73.54
2022-11-14T08:53:25.447Z,73.82
2022-11-14T08:56:11.597Z,73.40
2022-11-14T08:58:57.127Z,73.61
2022-11-14T09:01:42.852Z,73.32
2022-11-14T09:04:28.578Z,73.58
2022-11-14T09:07:14.458Z,73.78
2022-11-14T09:09:59.739Z,73.21
2022-11-14T09:12:45.185Z,73.49
2022-11-14T09:15:31.126Z,73.51
2022-11-14T09:18:16.668Z,73.21
2022-11-14T09:21:04.248Z,73.38
2022-11-14T09:23:49.420Z,73.18
2022-11-14T09:26:34.867Z,72.97
2022-11-14T09:29:20.630Z,72.92
2022-11-14T09:32:05.859Z,72.94
2022-11-14T09:34:52.120Z,73.39
2022-11-14T09:37:37.174Z,73.43
2022-11-14T09:40:22.417Z,73.49
2022-11-14T09:43:24.696Z,72.73
2022-11-14T09:46:19.698Z,72.82
2022-11-14T09:49:11.540Z,72.10
2022-11-14T09:52:24.615Z,71.84
2022-11-14T09:55:13.599Z,72.63
2022-11-14T09:58:00.978Z,72.70
2022-11-14T10:01:34.347Z,72.58
2022-11-14T10:04:40.863Z,72.45
2022-11-14T10:07:50.152Z,73.43
2022-11-14T10:10:51.073Z,72.96
2022-11-14T10:13:47.625Z,72.56
2022-11-14T10:16:43.151Z,72.69
2022-11-14T10:19:39.997Z,72.59
2022-11-14T10:23:00.088Z,72.79
2022-11-14T10:25:51.722Z,73.03
2022-11-14T10:28:50.648Z,73.17
2022-11-14T10:31:41.726Z,73.10
2022-11-14T10:35:00.568Z,72.89
2022-11-14T10:38:12.280Z,72.21
2022-11-14T10:41:04.798Z,71.69
2022-11-14T10:43:51.799Z,71.56
2022-11-14T10:46:42.004Z,71.37
2022-11-14T10:49:36.012Z,71.12
2022-11-14T10:52:31.184Z,70.71
2022-11-14T10:55:18.481Z,71.02
2022-11-14T10:58:10.395Z,70.62
2022-11-14T11:00:55.916Z,70.71
2022-11-14T11:03:43.030Z,70.77
2022-11-14T11:06:29.316Z,70.27
2022-11-14T11:09:46.033Z,70.14
2022-11-14T11:12:37.131Z,69.53
2022-11-14T11:15:27.924Z,69.58
2022-11-14T11:18:32.368Z,69.07
2022-11-14T11:21:20.662Z,69.22
2022-11-14T11:24:06.401Z,69.58
2022-11-14T11:27:14.434Z,69.87
2022-11-14T11:30:19.883Z,69.45
2022-11-14T11:33:29.999Z,69.46
2022-11-14T11:36:18.826Z,69.55
2022-11-14T11:39:04.381Z,69.75
2022-11-14T11:45:00.302Z,70.07
2022-11-14T11:47:53.935Z,69.29
2022-11-14T11:50:40.276Z,68.92
2022-11-14T11:53:58.364Z,68.87
2022-11-14T11:56:47.812Z,68.94
2022-11-14T11:59:45.570Z,68.68
2022-11-14T12:02:31.498Z,69.26
2022-11-14T12:05:33.181Z,69.48
2022-11-14T12:08:47.805Z,68.87
2022-11-14T12:11:37.406Z,69.04
2022-11-14T12:15:12.398Z,68.77
2022-11-14T12:18:16.237Z,68.27
2022-11-14T12:21:07.103Z,68.46
2022-11-14T12:23:58.389Z,68.29
2022-11-14T12:26:58.916Z,67.76
2022-11-14T12:30:14.143Z,67.28
2022-11-14T12:33:22.581Z,66.66
2022-11-14T12:36:12.813Z,66.22
2022-11-14T12:38:59.610Z,65.48
2022-11-14T12:41:45.135Z,65.61
2022-11-14T12:44:30.688Z,65.33
2022-11-14T12:47:24.305Z,65.05
2022-11-14T12:50:40.287Z,64.05
2022-11-14T12:53:37.145Z,64.42
2022-11-14T12:56:31.186Z,63.49
2022-11-14T12:59:26.446Z,63.62
2022-11-14T13:02:43.974Z,63.17
2022-11-14T13:06:17.451Z,62.88
2022-11-14T13:09:21.219Z,61.36
2022-11-14T13:12:45.580Z,62.11
2022-11-14T13:16:07.075Z,62.18
2022-11-14T13:19:12.199Z,62.28
2022-11-14T13:22:35.359Z,62.51
2022-11-14T13:25:22.658Z,63.07
2022-11-14T13:28:38.803Z,62.95
2022-11-14T13:31:41.983Z,63.16
2022-11-14T13:34:49.312Z,63.51
2022-11-14T13:37:46.485Z,63.58
2022-11-14T13:40:44.896Z,63.96
2022-11-14T13:44:12.042Z,63.70
2022-11-14T13:47:27.871Z,64.42
2022-11-14T13:50:18.802Z,65.22
2022-11-14T13:53:14.480Z,65.86
2022-11-14T13:56:07.032Z,65.90
2022-11-14T13:59:16.625Z,67.44
2022-11-14T14:02:08.308Z,67.96
2022-11-14T14:05:19.253Z,68.57
2022-11-14T14:08:16.639Z,69.49
2022-11-14T14:11:20.829Z,69.59
2022-11-14T14:14:18.220Z,70.21
2022-11-14T14:17:21.721Z,70.58
2022-11-14T14:20:39.768Z,71.39
2022-11-14T14:23:56.309Z,71.05
2022-11-14T14:27:16.498Z,71.33
2022-11-14T14:30:15.562Z,71.23
2022-11-14T14:33:11.599Z,71.06
2022-11-14T14:35:57.202Z,71.31
2022-11-14T14:38:42.551Z,71.24
2022-11-14T14:41:31.977Z,71.63
2022-11-14T14:44:25.365Z,71.52
2022-11-14T14:47:28.939Z,71.28
2022-11-14T14:50:49.084Z,71.49
2022-11-14T14:53:35.873Z,71.36
2022-11-14T14:56:24.901Z,71.50
2022-11-14T14:59:18.240Z,71.20
2022-11-14T15:02:08.504Z,71.33
2022-11-14T15:04:55.351Z,71.07
2022-11-14T15:07:40.832Z,71.36
2022-11-14T15:10:30.150Z,71.22
2022-11-14T15:13:18.045Z,71.22
2022-11-14T15:16:05.454Z,71.10
2022-11-14T15:18:52.328Z,71.40
2022-11-14T15:21:37.482Z,71.05
2022-11-14T15:24:23.944Z,71.53
2022-11-14T15:27:15.117Z,71.84
2022-11-14T15:30:06.865Z,71.30
2022-11-14T15:32:54.948Z,71.45
2022-11-14T15:35:40.692Z,71.50
2022-11-14T15:41:33.385Z,71.56
2022-11-14T15:44:33.081Z,71.20
2022-11-14T15:47:29.697Z,70.95
2022-11-14T15:50:14.722Z,71.17
2022-11-14T15:53:06.487Z,71.10
2022-11-14T15:55:51.627Z,71.21
2022-11-14T15:58:36.758Z,71.31
2022-11-14T16:01:28.171Z,71.63
2022-11-14T16:04:21.420Z,71.55
2022-11-14T16:07:06.726Z,71.95
2022-11-14T16:09:52.379Z,72.08
2022-11-14T16:12:37.576Z,71.66
2022-11-14T16:15:22.666Z,72.20
2022-11-14T16:18:08.062Z,72.14
2022-11-14T16:20:58.574Z,72.11
2022-11-14T16:23:44.072Z,71.92
2022-11-14T16:26:30.235Z,71.95
2022-11-14T16:29:16.232Z,71.99
2022-11-14T16:32:02.989Z,72.14
2022-11-14T16:34:48.290Z,72.37
2022-11-14T16:37:33.249Z,72.70
2022-11-14T16:40:22.901Z,72.28
2022-11-14T16:43:13.576Z,72.43
2022-11-14T16:46:03.764Z,72.52
2022-11-14T16:48:49.170Z,72.13
2022-11-14T16:51:50.853Z,71.99
2022-11-14T16:54:36.522Z,71.80
2022-11-14T16:57:22.050Z,72.31
2022-11-14T17:00:10.923Z,72.12
2022-11-14T17:02:56.726Z,72.49
2022-11-14T17:05:50.549Z,72.20
2022-11-14T17:08:36.070Z,71.97
2022-11-14T17:11:21.614Z,71.97
2022-11-14T17:14:07.012Z,71.80
2022-11-14T17:16:52.623Z,71.88
2022-11-14T17:19:45.529Z,71.85
2022-11-14T17:22:30.789Z,71.57
2022-11-14T17:25:15.962Z,71.58
2022-11-14T17:28:01.021Z,71.77
2022-11-14T17:30:46.185Z,71.85
2022-11-14T17:33:31.628Z,71.87
2022-11-14T17:36:18.066Z,71.78
2022-11-14T17:39:03.692Z,71.39
2022-11-14T17:41:49.170Z,71.50
2022-11-14T17:44:34.597Z,71.77
2022-11-14T17:47:20.623Z,71.81
2022-11-14T17:50:06.346Z,72.03
2022-11-14T17:52:51.243Z,72.67
2022-11-14T17:55:36.738Z,72.90
2022-11-14T17:58:22.154Z,72.94
2022-11-14T18:01:12.045Z,73.49
2022-11-14T18:04:01.659Z,73.64
2022-11-14T18:06:50.446Z,73.92
2022-11-14T18:09:35.586Z,74.29
2022-11-14T18:12:20.656Z,74.02
2022-11-14T18:15:06.760Z,74.36
2022-11-14T18:17:52.135Z,74.00
2022-11-14T18:20:37.956Z,74.54
2022-11-14T18:23:23.390Z,74.50
2022-11-14T18:26:13.688Z,74.38
2022-11-14T18:29:02.492Z,74.58
2022-11-14T18:31:48.275Z,74.77
2022-11-14T18:34:36.715Z,74.90
2022-11-14T18:37:22.454Z,74.89
2022-11-14T18:40:10.957Z,74.84
2022-11-14T18:43:02.418Z,75.10
2022-11-14T18:45:47.512Z,74.77
2022-11-14T18:48:33.296Z,74.60
2022-11-14T18:51:21.437Z,74.59
2022-11-14T18:54:09.252Z,74.67
2022-11-14T18:56:54.366Z,74.73
2022-11-14T18:59:39.559Z,74.52
2022-11-14T19:02:24.950Z,74.53
2022-11-14T19:05:09.913Z,75.06
2022-11-14T19:07:55.114Z,74.93
2022-11-14T19:10:40.357Z,74.89
2022-11-14T19:13:25.729Z,74.94
2022-11-14T19:16:10.818Z,74.90
2022-11-14T19:18:56.016Z,74.97
2022-11-14T19:21:41.564Z,74.95
2022-11-14T19:24:27.647Z,74.76
2022-11-14T19:27:14.709Z,74.78
2022-11-14T19:30:00.012Z,74.90
2022-11-14T19:32:46.853Z,75.02
2022-11-14T19:35:31.923Z,75.11
2022-11-14T19:38:17.317Z,75.18
2022-11-14T19:41:12.463Z,74.98
2022-11-14T19:43:59.196Z,74.74
2022-11-14T19:46:47.580Z,74.89
2022-11-14T19:49:33.251Z,75.05
2022-11-14T20:01:36.776Z,74.42
2022-11-14T20:04:22.945Z,74.07
2022-11-14T20:07:08.076Z,74.10
2022-11-14T20:09:53.287Z,73.79
2022-11-14T20:12:38.440Z,73.43
2022-11-14T20:15:24.194Z,73.36
2022-11-14T20:18:09.680Z,73.03
2022-11-14T20:20:57.890Z,72.01
2022-11-14T20:23:43.563Z,72.10
2022-11-14T20:26:28.864Z,72.12
2022-11-14T20:29:14.080Z,73.55
2022-11-14T20:31:59.471Z,73.93
2022-11-14T20:34:44.656Z,74.63
2022-11-14T20:37:29.776Z,74.76
2022-11-14T20:40:15.313Z,75.87
2022-11-14T20:43:02.502Z,76.08
2022-11-14T20:46:00.978Z,76.22
2022-11-14T20:48:47.352Z,76.11
2022-11-14T20:51:33.360Z,76.00
2022-11-14T20:54:18.966Z,75.96
2022-11-14T20:57:04.249Z,76.44
2022-11-14T20:59:49.617Z,76.09
2022-11-14T21:02:35.264Z,76.58
2022-11-14T21:05:20.373Z,77.59
2022-11-14T21:08:05.816Z,76.97
2022-11-14T21:10:58.739Z,77.10
2022-11-14T21:13:56.386Z,76.96
2022-11-14T21:16:41.582Z,77.21
2022-11-14T21:19:29.219Z,77.08
2022-11-14T21:22:15.020Z,77.40
2022-11-14T21:25:00.564Z,77.49
2022-11-14T21:27:46.162Z,77.62
2022-11-14T21:30:32.290Z,77.72
2022-11-14T21:33:17.607Z,77.51
2022-11-14T21:36:30.249Z,77.88
2022-11-14T21:39:16.339Z,77.48
2022-11-14T21:42:02.198Z,77.53
2022-11-14T21:44:47.644Z,77.76
2022-11-14T21:47:34.057Z,77.74
2022-11-14T21:50:19.203Z,77.74
2022-11-14T21:53:15.614Z,77.58
2022-11-14T21:56:19.774Z,77.71
2022-11-14T21:59:12.644Z,77.68
2022-11-14T22:02:17.237Z,77.63
2022-11-14T22:05:02.793Z,77.64
2022-11-14T22:07:47.816Z,77.59
2022-11-14T22:10:33.225Z,77.66
2022-11-14T22:13:18.751Z,77.29
2022-11-14T22:16:05.507Z,77.36
2022-11-14T22:18:56.304Z,77.27
2022-11-14T22:21:43.459Z,77.61
2022-11-14T22:24:28.581Z,77.66
2022-11-14T22:27:13.872Z,77.75
2022-11-14T22:29:58.969Z,77.72
2022-11-14T22:32:44.326Z,77.55
2022-11-14T22:35:29.663Z,77.27
2022-11-14T22:38:15.072Z,77.41
2022-11-14T22:41:01.741Z,77.54
2022-11-14T22:43:47.150Z,77.40
2022-11-14T22:46:32.669Z,77.67
2022-11-14T22:49:21.059Z,77.56
2022-11-14T22:52:06.687Z,77.63
2022-11-14T22:54:51.829Z,77.62
2022-11-14T22:57:37.297Z,77.66
2022-11-14T23:00:22.537Z,77.91
2022-11-14T23:03:07.839Z,77.88
2022-11-14T23:05:53.158Z,78.32
2022-11-14T23:08:38.937Z,78.53
2022-11-14T23:11:27.225Z,78.63
2022-11-14T23:14:14.133Z,78.55
2022-11-14T23:16:59.699Z,78.19
2022-11-14T23:19:45.242Z,78.78
2022-11-14T23:22:30.365Z,78.56
2022-11-14T23:25:15.913Z,78.45
2022-11-14T23:28:01.772Z,78.41
2022-11-14T23:30:46.902Z,78.50
2022-11-14T23:33:33.168Z,78.44
2022-11-14T23:36:18.426Z,78.68
2022-11-14T23:39:03.961Z,78.91
2022-11-14T23:41:49.084Z,78.74
2022-11-14T23:44:34.565Z,78.72
2022-11-14T23:47:19.582Z,78.76
2022-11-14T23:50:05.199Z,78.84
2022-11-14T23:52:50.566Z,78.41
2022-11-14T23:55:35.952Z,78.36
2022-11-14T23:58:23.091Z,78.60
